createdAt,value
2022-11-12T00:05:18.277Z,4.88
2022-11-12T00:10:38.660Z,4.75
2022-11-12T00:15:59.120Z,4.15
2022-11-12T00:21:19.093Z,3.85
2022-11-12T00:26:39.392Z,3.53
2022-11-12T00:31:59.708Z,3.28
2022-11-12T00:37:20.641Z,3.10
2022-11-12T00:42:40.840Z,2.90
2022-11-12T00:48:01.395Z,3.92
2022-11-12T00:53:21.775Z,3.65
2022-11-12T00:58:42.280Z,2.90
2022-11-12T01:04:02.752Z,3.63
2022-11-12T01:09:23.222Z,3.20
2022-11-12T01:14:43.541Z,3.03
2022-11-12T01:20:04.288Z,2.80
2022-11-12T01:25:24.511Z,2.80
2022-11-12T01:30:44.812Z,3.38
2022-11-12T01:36:06.015Z,2.88
2022-11-12T01:41:29.872Z,2.65
2022-11-12T01:47:16.098Z,3.03
2022-11-12T01:52:48.605Z,2.10
2022-11-12T01:58:11.719Z,1.65
2022-11-12T02:03:32.664Z,1.70
2022-11-12T02:08:53.341Z,2.03
2022-11-12T02:14:14.062Z,1.80
2022-11-12T02:19:37.858Z,1.88
2022-11-12T02:24:57.765Z,1.90
2022-11-12T02:30:19.615Z,1.95
2022-11-12T02:35:39.655Z,2.10
2022-11-12T02:40:59.798Z,2.30
2022-11-12T02:46:20.059Z,2.33
2022-11-12T02:51:40.580Z,1.98
2022-11-12T02:57:00.918Z,2.30
2022-11-12T03:02:20.991Z,2.13
2022-11-12T03:07:41.078Z,2.30
2022-11-12T03:13:01.865Z,2.47
2022-11-12T03:18:22.004Z,2.55
2022-11-12T03:23:41.961Z,2.80
2022-11-12T03:29:02.400Z,2.75
2022-11-12T03:34:22.747Z,2.47
2022-11-12T03:39:43.347Z,2.45
2022-11-12T03:45:04.158Z,2.40
2022-11-12T03:50:27.725Z,2.10
2022-11-12T03:55:47.878Z,1.73
2022-11-12T04:01:08.454Z,1.63
2022-11-12T04:06:47.197Z,1.77
2022-11-12T04:12:25.813Z,1.60
2022-11-12T04:18:04.543Z,1.38
2022-11-12T04:23:24.748Z,1.30
2022-11-12T04:29:04.900Z,1.40
2022-11-12T04:34:30.955Z,1.50
2022-11-12T04:39:51.846Z,1.40
2022-11-12T04:45:12.027Z,1.40
2022-11-12T04:50:32.595Z,1.20
2022-11-12T04:55:54.833Z,1.50
2022-11-12T05:01:15.198Z,1.35
2022-11-12T05:06:53.302Z,1.35
2022-11-12T05:12:13.809Z,1.23
2022-11-12T05:17:34.154Z,1.30
2022-11-12T05:23:06.129Z,1.00
2022-11-12T05:28:27.336Z,1.30
2022-11-12T05:33:47.383Z,1.17
2022-11-12T05:39:07.555Z,1.00
2022-11-12T05:44:27.610Z,1.20
2022-11-12T05:49:47.897Z,1.38
2022-11-12T05:55:08.535Z,1.27
2022-11-12T06:00:28.455Z,1.52
2022-11-12T06:05:48.712Z,1.15
2022-11-12T06:11:08.852Z,1.90
2022-11-12T06:16:30.065Z,1.20
2022-11-12T06:21:50.261Z,0.95
2022-11-12T06:27:10.791Z,1.25
2022-11-12T06:32:30.872Z,1.10
2022-11-12T06:37:51.386Z,1.05
2022-11-12T06:43:11.854Z,1.08
2022-11-12T06:48:32.212Z,1.50
2022-11-12T06:53:52.478Z,1.38
2022-11-12T06:59:12.599Z,1.10
2022-11-12T07:04:35.513Z,0.82
2022-11-12T07:09:55.500Z,1.02
2022-11-12T07:15:15.552Z,1.08
2022-11-12T07:20:35.961Z,0.77
2022-11-12T07:26:03.674Z,1.30
2022-11-12T07:31:25.760Z,1.20
2022-11-12T07:36:48.636Z,1.38
2022-11-12T07:42:08.791Z,1.77
2022-11-12T07:47:28.877Z,1.92
2022-11-12T07:52:51.212Z,1.70
2022-11-12T07:58:11.135Z,2.30
2022-11-12T08:03:31.126Z,2.10
2022-11-12T08:08:52.847Z,1.70
2022-11-12T08:14:13.228Z,1.58
2022-11-12T08:19:33.507Z,1.77
2022-11-12T08:24:55.564Z,2.30
2022-11-12T08:30:15.566Z,2.70
2022-11-12T08:35:38.021Z,2.25
2022-11-12T08:41:02.842Z,2.70
2022-11-12T08:46:22.802Z,2.50
2022-11-12T08:51:45.427Z,2.33
2022-11-12T08:57:07.968Z,2.13
2022-11-12T09:02:28.000Z,2.10
2022-11-12T09:07:50.614Z,3.28
2022-11-12T09:13:12.443Z,4.13
2022-11-12T09:18:33.895Z,4.60
2022-11-12T09:23:55.462Z,3.72
2022-11-12T09:29:15.640Z,3.38
2022-11-12T09:34:35.835Z,3.58
2022-11-12T09:39:56.172Z,3.70
2022-11-12T09:45:27.397Z,3.25
2022-11-12T09:50:58.989Z,3.92
2022-11-12T09:56:25.781Z,3.67
2022-11-12T20:18:05.986Z,6.43
2022-11-12T20:23:27.242Z,5.53
2022-11-12T20:28:48.350Z,4.65
2022-11-12T20:34:08.524Z,3.58
2022-11-12T20:39:28.880Z,3.83
2022-11-12T20:44:49.277Z,4.03
2022-11-12T20:50:09.652Z,4.18
2022-11-12T20:55:32.415Z,4.75
2022-11-12T21:00:52.689Z,3.65
2022-11-12T21:06:15.430Z,3.30
2022-11-12T21:11:35.631Z,3.10
2022-11-12T21:16:55.913Z,3.13
2022-11-12T21:22:17.189Z,2.92
2022-11-12T21:27:38.428Z,3.10
2022-11-12T21:32:59.217Z,3.25
2022-11-12T21:38:19.314Z,4.18
2022-11-12T21:43:43.084Z,4.25
2022-11-12T21:49:03.949Z,3.45
2022-11-12T21:54:24.279Z,3.67
2022-11-12T21:59:44.847Z,3.80
2022-11-12T22:05:05.710Z,3.78
2022-11-12T22:10:25.972Z,3.60
2022-11-12T22:15:46.466Z,2.70
2022-11-12T22:21:10.544Z,2.88
2022-11-12T22:26:31.341Z,2.90
2022-11-12T22:31:51.849Z,2.88
2022-11-12T22:37:12.261Z,2.78
2022-11-12T22:42:32.846Z,2.80
2022-11-12T22:47:53.273Z,3.00
2022-11-12T22:53:14.467Z,3.17
2022-11-12T22:58:36.383Z,3.00
2022-11-12T23:03:58.985Z,2.80
2022-11-12T23:09:19.094Z,3.00
2022-11-12T23:14:39.086Z,3.65
2022-11-12T23:19:59.544Z,3.03
2022-11-12T23:25:19.829Z,3.40
2022-11-12T23:30:40.492Z,3.88
2022-11-12T23:36:08.431Z,3.10
2022-11-12T23:41:28.464Z,2.58
2022-11-12T23:46:48.994Z,2.50
2022-11-12T23:52:09.311Z,2.63
2022-11-12T23:57:29.482Z,2.50
